Aeroporto :
LOGIN :

Iscrizione | Disclaimer

   EN    FR    IT 

 










Sommario :    VFR   VFR Marginale   IFR   IFR Intensivo   IFR Molto Intensivo
Visibilità : 
Base nubi : 
>= 8 km
>= 3000ft
5 / 8 km
1000 / 3000 ft
1500m / 5 km
500 / 1000 ft
800 / 1500m
200 / 500 ft
< 800m
< 200 ft
Simboli :   Temporali  Nebbia  Neve Forte  Precipitazioni Forti  Vento > 20 kt
SIGMETs :   Varie  Temporali  Ghiacco  Turbolenza  Onda orograficha  Ceneri Vulcaniche






- Altitudine del aeroporto : 308 ft
- Codice IATA : MHG


EDFM - Mannheim-City

ULTIMO METAR :
  • 181150Z 22004KT 160V330 CAVOK 32/18 Q1012

METARs OBSOLETI :
  • 181120Z 21005KT 150V270 CAVOK 32/19 Q1013
  • 181050Z 20006KT 160V260 CAVOK 32/19 Q1013
  • 181020Z VRB03KT CAVOK 33/18 Q1013
  • 180950Z VRB03KT CAVOK 32/17 Q1013
  • 180920Z 07005KT 030V140 CAVOK 31/18 Q1013

TAF TAF EDFM
Valido dal 18 a 12 ore il 18 a 21 ore UTC


181132Z 1812/1821 VRB03KT CAVOK
PROB30
TEMPO 1815/1818 30020G40KT 3000 TSRAGR BKN040CB



MetMap, La meteo Aeronautica in un colpo d'occhio ! - Copyright ORBIFLY Dicembre 2007 - Disclaimer

ORBIFLY MET'MAP TEAM :

Programmazione e sviluppo : Alexandra Zaïnal
Concezione : Baudouin d'Aumeries
Aiuto per la programmazione : Marc-Olivier Méhu
Supporto tecnico e logistico : Manuel Goepfert
Aiuto per la traduzione : Arnaldo La Scala

Contatto : metmap@orbifly.com




FONTI E CREDITI :

   NOAA